sensor_id;sensor_type;location;lat;lon;timestamp;P1;durP1;ratioP1;P2;durP2;ratioP2
56960;SDS011;42857;49.768;22.716;2022-07-23T00:01:36;12.32;;;8.55;;
56960;SDS011;42857;49.768;22.716;2022-07-23T00:04:02;11.05;;;7.50;;
56960;SDS011;42857;49.768;22.716;2022-07-23T00:06:28;12.10;;;8.73;;
56960;SDS011;42857;49.768;22.716;2022-07-23T00:08:54;10.90;;;7.90;;
56960;SDS011;42857;49.768;22.716;2022-07-23T00:11:20;12.40;;;8.13;;
56960;SDS011;42857;49.768;22.716;2022-07-23T00:13:47;11.63;;;8.05;;
56960;SDS011;42857;49.768;22.716;2022-07-23T00:16:13;13.13;;;8.25;;
56960;SDS011;42857;49.768;22.716;2022-07-23T00:18:39;12.38;;;8.85;;
56960;SDS011;42857;49.768;22.716;2022-07-23T00:21:05;10.48;;;8.10;;
56960;SDS011;42857;49.768;22.716;2022-07-23T00:23:31;10.07;;;8.13;;
56960;SDS011;42857;49.768;22.716;2022-07-23T00:25:57;10.70;;;8.43;;
56960;SDS011;42857;49.768;22.716;2022-07-23T00:28:23;12.93;;;8.82;;
56960;SDS011;42857;49.768;22.716;2022-07-23T00:30:49;12.80;;;8.82;;
56960;SDS011;42857;49.768;22.716;2022-07-23T00:33:15;10.95;;;8.50;;
56960;SDS011;42857;49.768;22.716;2022-07-23T00:35:42;12.85;;;8.30;;
56960;SDS011;42857;49.768;22.716;2022-07-23T00:38:08;10.60;;;8.65;;
56960;SDS011;42857;49.768;22.716;2022-07-23T00:40:35;14.52;;;9.57;;
56960;SDS011;42857;49.768;22.716;2022-07-23T00:43:01;10.38;;;8.52;;
56960;SDS011;42857;49.768;22.716;2022-07-23T00:45:27;10.15;;;7.82;;
56960;SDS011;42857;49.768;22.716;2022-07-23T00:47:54;11.60;;;7.68;;
56960;SDS011;42857;49.768;22.716;2022-07-23T00:50:20;8.18;;;6.80;;
56960;SDS011;42857;49.768;22.716;2022-07-23T00:52:46;8.95;;;6.80;;
56960;SDS011;42857;49.768;22.716;2022-07-23T00:55:12;9.07;;;7.10;;
56960;SDS011;42857;49.768;22.716;2022-07-23T00:57:38;8.20;;;7.05;;
56960;SDS011;42857;49.768;22.716;2022-07-23T01:00:05;9.73;;;6.82;;
56960;SDS011;42857;49.768;22.716;2022-07-23T01:02:31;9.88;;;6.13;;
56960;SDS011;42857;49.768;22.716;2022-07-23T01:04:57;7.47;;;6.15;;
56960;SDS011;42857;49.768;22.716;2022-07-23T01:07:23;7.55;;;6.18;;
56960;SDS011;42857;49.768;22.716;2022-07-23T01:09:50;6.82;;;5.97;;
56960;SDS011;42857;49.768;22.716;2022-07-23T01:12:17;10.35;;;6.05;;
56960;SDS011;42857;49.768;22.716;2022-07-23T01:14:42;8.35;;;6.05;;
56960;SDS011;42857;49.768;22.716;2022-07-23T01:17:08;6.97;;;6.10;;
56960;SDS011;42857;49.768;22.716;2022-07-23T01:19:34;8.23;;;5.30;;
56960;SDS011;42857;49.768;22.716;2022-07-23T01:22:01;11.52;;;7.15;;
56960;SDS011;42857;49.768;22.716;2022-07-23T01:24:27;6.30;;;5.70;;
56960;SDS011;42857;49.768;22.716;2022-07-23T01:26:53;7.20;;;5.38;;
56960;SDS011;42857;49.768;22.716;2022-07-23T01:29:19;6.35;;;5.13;;
56960;SDS011;42857;49.768;22.716;2022-07-23T01:31:46;6.15;;;5.55;;
56960;SDS011;42857;49.768;22.716;2022-07-23T01:34:12;6.47;;;5.78;;
56960;SDS011;42857;49.768;22.716;2022-07-23T01:36:38;8.90;;;5.75;;
56960;SDS011;42857;49.768;22.716;2022-07-23T01:39:05;8.27;;;5.68;;
56960;SDS011;42857;49.768;22.716;2022-07-23T01:41:31;7.30;;;5.65;;
56960;SDS011;42857;49.768;22.716;2022-07-23T01:43:57;6.65;;;5.68;;
56960;SDS011;42857;49.768;22.716;2022-07-23T01:46:23;6.35;;;5.68;;
56960;SDS011;42857;49.768;22.716;2022-07-23T01:48:49;6.32;;;5.30;;
56960;SDS011;42857;49.768;22.716;2022-07-23T01:51:15;9.57;;;5.95;;
56960;SDS011;42857;49.768;22.716;2022-07-23T01:53:41;7.68;;;5.50;;
56960;SDS011;42857;49.768;22.716;2022-07-23T01:56:07;7.03;;;6.22;;
56960;SDS011;42857;49.768;22.716;2022-07-23T01:58:33;9.13;;;6.32;;
56960;SDS011;42857;49.768;22.716;2022-07-23T02:00:59;8.55;;;5.53;;
56960;SDS011;42857;49.768;22.716;2022-07-23T02:03:25;7.50;;;6.18;;
56960;SDS011;42857;49.768;22.716;2022-07-23T02:05:51;8.20;;;6.55;;
56960;SDS011;42857;49.768;22.716;2022-07-23T02:08:17;7.90;;;7.07;;
56960;SDS011;42857;49.768;22.716;2022-07-23T02:10:43;11.52;;;6.70;;
56960;SDS011;42857;49.768;22.716;2022-07-23T02:13:10;8.85;;;7.03;;
56960;SDS011;42857;49.768;22.716;2022-07-23T02:15:36;8.15;;;6.25;;
56960;SDS011;42857;49.768;22.716;2022-07-23T02:18:02;7.53;;;6.78;;
56960;SDS011;42857;49.768;22.716;2022-07-23T02:20:28;11.02;;;7.70;;
56960;SDS011;42857;49.768;22.716;2022-07-23T02:22:54;9.23;;;7.38;;
56960;SDS011;42857;49.768;22.716;2022-07-23T02:25:20;9.00;;;7.45;;
56960;SDS011;42857;49.768;22.716;2022-07-23T02:27:46;11.48;;;7.95;;
56960;SDS011;42857;49.768;22.716;2022-07-23T02:30:12;8.65;;;7.50;;
56960;SDS011;42857;49.768;22.716;2022-07-23T02:32:38;10.38;;;7.93;;
56960;SDS011;42857;49.768;22.716;2022-07-23T02:35:04;10.45;;;8.00;;
56960;SDS011;42857;49.768;22.716;2022-07-23T02:37:31;8.73;;;7.70;;
56960;SDS011;42857;49.768;22.716;2022-07-23T02:39:57;10.98;;;8.95;;
56960;SDS011;42857;49.768;22.716;2022-07-23T02:42:23;11.80;;;9.35;;
56960;SDS011;42857;49.768;22.716;2022-07-23T02:44:49;9.98;;;8.52;;
56960;SDS011;42857;49.768;22.716;2022-07-23T02:47:16;9.10;;;7.35;;
56960;SDS011;42857;49.768;22.716;2022-07-23T02:49:42;10.60;;;7.47;;
56960;SDS011;42857;49.768;22.716;2022-07-23T02:52:08;9.30;;;7.43;;
56960;SDS011;42857;49.768;22.716;2022-07-23T02:54:35;8.75;;;6.50;;
56960;SDS011;42857;49.768;22.716;2022-07-23T02:57:01;9.73;;;7.03;;
56960;SDS011;42857;49.768;22.716;2022-07-23T02:59:27;9.50;;;6.78;;
56960;SDS011;42857;49.768;22.716;2022-07-23T03:01:53;8.30;;;6.35;;
56960;SDS011;42857;49.768;22.716;2022-07-23T03:04:19;10.57;;;7.10;;
56960;SDS011;42857;49.768;22.716;2022-07-23T03:06:45;7.15;;;6.45;;
56960;SDS011;42857;49.768;22.716;2022-07-23T03:09:11;6.57;;;5.90;;
56960;SDS011;42857;49.768;22.716;2022-07-23T03:11:37;10.02;;;6.38;;
56960;SDS011;42857;49.768;22.716;2022-07-23T03:14:03;6.80;;;6.10;;
56960;SDS011;42857;49.768;22.716;2022-07-23T03:16:29;8.30;;;6.53;;
56960;SDS011;42857;49.768;22.716;2022-07-23T03:18:55;8.20;;;6.45;;
56960;SDS011;42857;49.768;22.716;2022-07-23T03:21:21;8.57;;;6.95;;
56960;SDS011;42857;49.768;22.716;2022-07-23T03:23:47;8.65;;;7.30;;
56960;SDS011;42857;49.768;22.716;2022-07-23T03:26:12;8.65;;;7.75;;
56960;SDS011;42857;49.768;22.716;2022-07-23T03:28:39;9.10;;;8.15;;
56960;SDS011;42857;49.768;22.716;2022-07-23T03:31:05;9.98;;;8.32;;
56960;SDS011;42857;49.768;22.716;2022-07-23T03:33:31;9.50;;;7.40;;
56960;SDS011;42857;49.768;22.716;2022-07-23T03:35:57;11.55;;;8.13;;
56960;SDS011;42857;49.768;22.716;2022-07-23T03:38:23;12.27;;;8.13;;
56960;SDS011;42857;49.768;22.716;2022-07-23T03:40:49;13.00;;;8.55;;
56960;SDS011;42857;49.768;22.716;2022-07-23T03:43:15;13.00;;;8.52;;
56960;SDS011;42857;49.768;22.716;2022-07-23T03:45:41;11.25;;;9.02;;
56960;SDS011;42857;49.768;22.716;2022-07-23T03:48:06;10.50;;;8.95;;
56960;SDS011;42857;49.768;22.716;2022-07-23T03:50:32;10.13;;;8.80;;
56960;SDS011;42857;49.768;22.716;2022-07-23T03:52:59;12.00;;;8.30;;
56960;SDS011;42857;49.768;22.716;2022-07-23T03:55:25;11.13;;;7.70;;
56960;SDS011;42857;49.768;22.716;2022-07-23T03:57:51;12.57;;;8.32;;
56960;SDS011;42857;49.768;22.716;2022-07-23T04:00:17;9.75;;;7.35;;
56960;SDS011;42857;49.768;22.716;2022-07-23T04:02:43;10.77;;;7.18;;
56960;SDS011;42857;49.768;22.716;2022-07-23T04:05:09;20.48;;;18.15;;
56960;SDS011;42857;49.768;22.716;2022-07-23T04:07:35;14.52;;;13.02;;
56960;SDS011;42857;49.768;22.716;2022-07-23T04:10:04;11.43;;;7.57;;
56960;SDS011;42857;49.768;22.716;2022-07-23T04:12:30;12.30;;;7.40;;
56960;SDS011;42857;49.768;22.716;2022-07-23T04:14:56;9.77;;;6.50;;
56960;SDS011;42857;49.768;22.716;2022-07-23T04:17:22;8.73;;;6.65;;
56960;SDS011;42857;49.768;22.716;2022-07-23T04:19:48;7.55;;;6.38;;
56960;SDS011;42857;49.768;22.716;2022-07-23T04:22:13;7.30;;;6.55;;
56960;SDS011;42857;49.768;22.716;2022-07-23T04:24:39;9.40;;;6.82;;
56960;SDS011;42857;49.768;22.716;2022-07-23T04:27:05;8.10;;;7.30;;
56960;SDS011;42857;49.768;22.716;2022-07-23T04:29:32;9.43;;;6.97;;
56960;SDS011;42857;49.768;22.716;2022-07-23T04:31:57;8.52;;;6.55;;
56960;SDS011;42857;49.768;22.716;2022-07-23T04:34:23;10.30;;;7.20;;
56960;SDS011;42857;49.768;22.716;2022-07-23T04:36:51;8.13;;;6.53;;
56960;SDS011;42857;49.768;22.716;2022-07-23T04:39:17;7.07;;;6.38;;
56960;SDS011;42857;49.768;22.716;2022-07-23T04:41:43;7.82;;;7.13;;
56960;SDS011;42857;49.768;22.716;2022-07-23T04:44:09;7.25;;;6.43;;
56960;SDS011;42857;49.768;22.716;2022-07-23T04:46:35;8.25;;;6.68;;
56960;SDS011;42857;49.768;22.716;2022-07-23T04:49:01;8.73;;;6.95;;
56960;SDS011;42857;49.768;22.716;2022-07-23T04:51:28;9.23;;;7.50;;
56960;SDS011;42857;49.768;22.716;2022-07-23T04:53:54;8.82;;;7.35;;
56960;SDS011;42857;49.768;22.716;2022-07-23T04:56:20;8.60;;;7.30;;
56960;SDS011;42857;49.768;22.716;2022-07-23T04:58:45;10.85;;;8.15;;
56960;SDS011;42857;49.768;22.716;2022-07-23T05:01:11;10.63;;;8.00;;
56960;SDS011;42857;49.768;22.716;2022-07-23T05:03:38;10.00;;;7.40;;
56960;SDS011;42857;49.768;22.716;2022-07-23T05:06:04;11.10;;;8.40;;
56960;SDS011;42857;49.768;22.716;2022-07-23T05:08:30;11.50;;;8.32;;
56960;SDS011;42857;49.768;22.716;2022-07-23T05:10:56;11.20;;;8.95;;
56960;SDS011;42857;49.768;22.716;2022-07-23T05:13:22;12.40;;;9.80;;
56960;SDS011;42857;49.768;22.716;2022-07-23T05:15:48;13.48;;;9.90;;
56960;SDS011;42857;49.768;22.716;2022-07-23T05:18:14;13.52;;;10.15;;
56960;SDS011;42857;49.768;22.716;2022-07-23T05:20:40;13.35;;;10.93;;
56960;SDS011;42857;49.768;22.716;2022-07-23T05:23:06;14.20;;;10.23;;
56960;SDS011;42857;49.768;22.716;2022-07-23T05:25:32;12.10;;;9.90;;
56960;SDS011;42857;49.768;22.716;2022-07-23T05:27:58;11.88;;;10.45;;
56960;SDS011;42857;49.768;22.716;2022-07-23T05:30:24;13.68;;;11.77;;
56960;SDS011;42857;49.768;22.716;2022-07-23T05:32:50;15.00;;;11.20;;
56960;SDS011;42857;49.768;22.716;2022-07-23T05:35:17;12.50;;;10.23;;
56960;SDS011;42857;49.768;22.716;2022-07-23T05:37:43;10.98;;;9.63;;
56960;SDS011;42857;49.768;22.716;2022-07-23T05:40:09;12.15;;;9.27;;
56960;SDS011;42857;49.768;22.716;2022-07-23T05:42:36;12.95;;;9.98;;
56960;SDS011;42857;49.768;22.716;2022-07-23T05:45:02;11.48;;;10.25;;
56960;SDS011;42857;49.768;22.716;2022-07-23T05:47:29;12.32;;;10.23;;
56960;SDS011;42857;49.768;22.716;2022-07-23T05:49:54;10.18;;;9.10;;
56960;SDS011;42857;49.768;22.716;2022-07-23T05:52:20;11.00;;;9.50;;
56960;SDS011;42857;49.768;22.716;2022-07-23T05:54:46;11.40;;;9.30;;
56960;SDS011;42857;49.768;22.716;2022-07-23T05:57:12;10.73;;;8.95;;
56960;SDS011;42857;49.768;22.716;2022-07-23T05:59:38;11.60;;;9.00;;
56960;SDS011;42857;49.768;22.716;2022-07-23T06:02:04;11.52;;;9.60;;
56960;SDS011;42857;49.768;22.716;2022-07-23T06:04:30;11.48;;;8.98;;
56960;SDS011;42857;49.768;22.716;2022-07-23T06:06:56;9.90;;;8.43;;
56960;SDS011;42857;49.768;22.716;2022-07-23T06:09:22;9.73;;;8.73;;
56960;SDS011;42857;49.768;22.716;2022-07-23T06:11:48;9.95;;;8.32;;
56960;SDS011;42857;49.768;22.716;2022-07-23T06:14:14;11.20;;;8.48;;
56960;SDS011;42857;49.768;22.716;2022-07-23T06:16:40;9.77;;;8.10;;
56960;SDS011;42857;49.768;22.716;2022-07-23T06:19:06;12.00;;;9.32;;
56960;SDS011;42857;49.768;22.716;2022-07-23T06:21:32;13.02;;;9.50;;
56960;SDS011;42857;49.768;22.716;2022-07-23T06:23:58;11.85;;;9.38;;
56960;SDS011;42857;49.768;22.716;2022-07-23T06:26:24;10.93;;;9.77;;
56960;SDS011;42857;49.768;22.716;2022-07-23T06:28:50;13.63;;;10.95;;
56960;SDS011;42857;49.768;22.716;2022-07-23T06:31:16;12.38;;;10.57;;
56960;SDS011;42857;49.768;22.716;2022-07-23T06:33:42;10.30;;;9.05;;
56960;SDS011;42857;49.768;22.716;2022-07-23T06:36:08;10.35;;;8.25;;
56960;SDS011;42857;49.768;22.716;2022-07-23T06:38:34;9.98;;;8.40;;
56960;SDS011;42857;49.768;22.716;2022-07-23T06:41:00;8.85;;;7.70;;
56960;SDS011;42857;49.768;22.716;2022-07-23T06:43:26;9.82;;;8.82;;
56960;SDS011;42857;49.768;22.716;2022-07-23T06:45:52;9.50;;;8.10;;
56960;SDS011;42857;49.768;22.716;2022-07-23T06:48:18;9.82;;;8.52;;
56960;SDS011;42857;49.768;22.716;2022-07-23T06:50:43;9.73;;;7.85;;
56960;SDS011;42857;49.768;22.716;2022-07-23T06:53:10;11.75;;;8.27;;
56960;SDS011;42857;49.768;22.716;2022-07-23T06:55:35;9.98;;;8.43;;
56960;SDS011;42857;49.768;22.716;2022-07-23T06:58:03;12.88;;;8.05;;
56960;SDS011;42857;49.768;22.716;2022-07-23T07:00:30;9.38;;;7.78;;
56960;SDS011;42857;49.768;22.716;2022-07-23T07:02:57;9.52;;;8.52;;
56960;SDS011;42857;49.768;22.716;2022-07-23T07:05:23;11.55;;;8.88;;
56960;SDS011;42857;49.768;22.716;2022-07-23T07:07:50;12.02;;;9.38;;
56960;SDS011;42857;49.768;22.716;2022-07-23T07:10:16;12.48;;;8.77;;
56960;SDS011;42857;49.768;22.716;2022-07-23T07:12:43;9.95;;;9.00;;
56960;SDS011;42857;49.768;22.716;2022-07-23T07:15:09;10.40;;;8.60;;
56960;SDS011;42857;49.768;22.716;2022-07-23T07:17:36;10.52;;;9.50;;
56960;SDS011;42857;49.768;22.716;2022-07-23T07:20:02;11.52;;;9.85;;
56960;SDS011;42857;49.768;22.716;2022-07-23T07:22:28;9.60;;;8.57;;
56960;SDS011;42857;49.768;22.716;2022-07-23T07:24:54;10.55;;;9.50;;
56960;SDS011;42857;49.768;22.716;2022-07-23T07:27:20;9.95;;;8.77;;
56960;SDS011;42857;49.768;22.716;2022-07-23T07:29:46;10.07;;;9.07;;
56960;SDS011;42857;49.768;22.716;2022-07-23T07:32:12;10.90;;;8.50;;
56960;SDS011;42857;49.768;22.716;2022-07-23T07:34:38;11.05;;;9.75;;
56960;SDS011;42857;49.768;22.716;2022-07-23T07:37:04;10.18;;;8.95;;
56960;SDS011;42857;49.768;22.716;2022-07-23T07:39:30;11.35;;;9.43;;
56960;SDS011;42857;49.768;22.716;2022-07-23T07:41:56;10.45;;;9.20;;
56960;SDS011;42857;49.768;22.716;2022-07-23T07:44:22;10.60;;;9.50;;
56960;SDS011;42857;49.768;22.716;2022-07-23T07:46:48;13.40;;;9.15;;
56960;SDS011;42857;49.768;22.716;2022-07-23T07:49:14;11.02;;;9.15;;
56960;SDS011;42857;49.768;22.716;2022-07-23T07:51:42;9.95;;;8.95;;
56960;SDS011;42857;49.768;22.716;2022-07-23T07:54:08;16.20;;;10.50;;
56960;SDS011;42857;49.768;22.716;2022-07-23T07:56:34;12.88;;;9.48;;
56960;SDS011;42857;49.768;22.716;2022-07-23T07:59:00;11.35;;;9.23;;
56960;SDS011;42857;49.768;22.716;2022-07-23T08:01:26;10.98;;;9.38;;
56960;SDS011;42857;49.768;22.716;2022-07-23T08:03:52;11.48;;;10.27;;
56960;SDS011;42857;49.768;22.716;2022-07-23T08:06:18;11.15;;;9.95;;
56960;SDS011;42857;49.768;22.716;2022-07-23T08:08:44;9.98;;;8.93;;
56960;SDS011;42857;49.768;22.716;2022-07-23T08:11:10;9.73;;;8.70;;
56960;SDS011;42857;49.768;22.716;2022-07-23T08:13:36;11.40;;;10.23;;
56960;SDS011;42857;49.768;22.716;2022-07-23T08:16:02;12.43;;;9.50;;
56960;SDS011;42857;49.768;22.716;2022-07-23T08:18:28;11.32;;;9.70;;
56960;SDS011;42857;49.768;22.716;2022-07-23T08:20:54;10.68;;;9.57;;
56960;SDS011;42857;49.768;22.716;2022-07-23T08:23:20;12.50;;;9.77;;
56960;SDS011;42857;49.768;22.716;2022-07-23T08:25:46;13.13;;;9.60;;
56960;SDS011;42857;49.768;22.716;2022-07-23T08:28:13;11.57;;;10.13;;
56960;SDS011;42857;49.768;22.716;2022-07-23T08:30:39;11.55;;;9.40;;
56960;SDS011;42857;49.768;22.716;2022-07-23T08:33:06;10.40;;;9.00;;
56960;SDS011;42857;49.768;22.716;2022-07-23T08:35:39;9.98;;;9.00;;
56960;SDS011;42857;49.768;22.716;2022-07-23T08:38:06;11.13;;;9.43;;
56960;SDS011;42857;49.768;22.716;2022-07-23T08:40:34;10.77;;;8.95;;
56960;SDS011;42857;49.768;22.716;2022-07-23T08:43:00;10.63;;;9.52;;
56960;SDS011;42857;49.768;22.716;2022-07-23T08:45:28;10.77;;;9.55;;
56960;SDS011;42857;49.768;22.716;2022-07-23T08:47:58;11.88;;;9.65;;
56960;SDS011;42857;49.768;22.716;2022-07-23T08:50:24;12.20;;;9.73;;
56960;SDS011;42857;49.768;22.716;2022-07-23T08:52:51;10.82;;;9.60;;
56960;SDS011;42857;49.768;22.716;2022-07-23T08:55:18;10.40;;;9.18;;
56960;SDS011;42857;49.768;22.716;2022-07-23T08:57:46;11.50;;;10.05;;
56960;SDS011;42857;49.768;22.716;2022-07-23T09:00:13;11.87;;;10.40;;
56960;SDS011;42857;49.768;22.716;2022-07-23T09:02:40;14.07;;;10.95;;
56960;SDS011;42857;49.768;22.716;2022-07-23T09:05:06;19.25;;;9.98;;
56960;SDS011;42857;49.768;22.716;2022-07-23T09:07:32;10.98;;;9.90;;
56960;SDS011;42857;49.768;22.716;2022-07-23T09:10:06;10.32;;;9.30;;
56960;SDS011;42857;49.768;22.716;2022-07-23T09:12:32;10.90;;;9.80;;
56960;SDS011;42857;49.768;22.716;2022-07-23T09:14:59;11.55;;;10.30;;
56960;SDS011;42857;49.768;22.716;2022-07-23T09:17:28;10.73;;;9.48;;
56960;SDS011;42857;49.768;22.716;2022-07-23T09:20:15;10.43;;;9.23;;
56960;SDS011;42857;49.768;22.716;2022-07-23T09:22:44;9.73;;;8.82;;
56960;SDS011;42857;49.768;22.716;2022-07-23T09:25:15;10.43;;;9.43;;
56960;SDS011;42857;49.768;22.716;2022-07-23T09:27:54;10.85;;;9.85;;
56960;SDS011;42857;49.768;22.716;2022-07-23T09:30:21;10.65;;;9.43;;
56960;SDS011;42857;49.768;22.716;2022-07-23T09:38:11;11.93;;;9.45;;
56960;SDS011;42857;49.768;22.716;2022-07-23T09:40:37;10.98;;;9.98;;
56960;SDS011;42857;49.768;22.716;2022-07-23T09:43:03;10.50;;;9.50;;
56960;SDS011;42857;49.768;22.716;2022-07-23T09:45:29;12.32;;;10.10;;
56960;SDS011;42857;49.768;22.716;2022-07-23T09:48:11;12.98;;;9.93;;
56960;SDS011;42857;49.768;22.716;2022-07-23T09:50:38;9.65;;;8.77;;
56960;SDS011;42857;49.768;22.716;2022-07-23T09:53:04;10.38;;;9.32;;
56960;SDS011;42857;49.768;22.716;2022-07-23T09:55:31;12.43;;;10.05;;
56960;SDS011;42857;49.768;22.716;2022-07-23T09:58:07;13.45;;;10.07;;
56960;SDS011;42857;49.768;22.716;2022-07-23T10:00:39;13.10;;;10.63;;
56960;SDS011;42857;49.768;22.716;2022-07-23T10:03:05;12.73;;;8.88;;
56960;SDS011;42857;49.768;22.716;2022-07-23T10:05:31;12.10;;;10.48;;
56960;SDS011;42857;49.768;22.716;2022-07-23T10:08:00;11.10;;;9.95;;
56960;SDS011;42857;49.768;22.716;2022-07-23T10:10:27;10.27;;;9.23;;
56960;SDS011;42857;49.768;22.716;2022-07-23T10:12:54;11.05;;;9.98;;
56960;SDS011;42857;49.768;22.716;2022-07-23T10:15:27;11.32;;;10.18;;
56960;SDS011;42857;49.768;22.716;2022-07-23T10:17:53;10.60;;;9.70;;
56960;SDS011;42857;49.768;22.716;2022-07-23T10:20:19;10.13;;;9.23;;
56960;SDS011;42857;49.768;22.716;2022-07-23T10:23:27;12.48;;;10.55;;
56960;SDS011;42857;49.768;22.716;2022-07-23T10:25:36;11.18;;;10.10;;
56960;SDS011;42857;49.768;22.716;2022-07-23T10:36:04;10.60;;;9.60;;
56960;SDS011;42857;49.768;22.716;2022-07-23T10:38:36;10.02;;;9.02;;
56960;SDS011;42857;49.768;22.716;2022-07-23T10:41:04;11.23;;;9.27;;
56960;SDS011;42857;49.768;22.716;2022-07-23T10:43:30;9.60;;;8.70;;
56960;SDS011;42857;49.768;22.716;2022-07-23T10:46:20;10.00;;;9.05;;
56960;SDS011;42857;49.768;22.716;2022-07-23T10:48:42;10.10;;;9.20;;
56960;SDS011;42857;49.768;22.716;2022-07-23T10:51:09;11.00;;;9.13;;
56960;SDS011;42857;49.768;22.716;2022-07-23T10:59:03;9.65;;;8.38;;
56960;SDS011;42857;49.768;22.716;2022-07-23T11:01:36;10.23;;;8.48;;
56960;SDS011;42857;49.768;22.716;2022-07-23T11:04:02;9.75;;;8.77;;
56960;SDS011;42857;49.768;22.716;2022-07-23T11:07:06;10.10;;;8.65;;
56960;SDS011;42857;49.768;22.716;2022-07-23T11:09:30;10.13;;;8.57;;
56960;SDS011;42857;49.768;22.716;2022-07-23T11:17:26;12.75;;;9.25;;
56960;SDS011;42857;49.768;22.716;2022-07-23T11:25:10;10.38;;;9.20;;
56960;SDS011;42857;49.768;22.716;2022-07-23T11:27:45;11.18;;;10.07;;
56960;SDS011;42857;49.768;22.716;2022-07-23T11:35:34;10.55;;;9.55;;
56960;SDS011;42857;49.768;22.716;2022-07-23T11:38:07;10.75;;;9.80;;
56960;SDS011;42857;49.768;22.716;2022-07-23T11:40:34;10.80;;;9.18;;
56960;SDS011;42857;49.768;22.716;2022-07-23T11:43:04;11.27;;;9.63;;
56960;SDS011;42857;49.768;22.716;2022-07-23T11:45:41;10.27;;;9.23;;
56960;SDS011;42857;49.768;22.716;2022-07-23T11:48:08;10.25;;;9.23;;
56960;SDS011;42857;49.768;22.716;2022-07-23T11:50:35;10.65;;;9.57;;
56960;SDS011;42857;49.768;22.716;2022-07-23T11:53:02;10.70;;;9.60;;
56960;SDS011;42857;49.768;22.716;2022-07-23T11:55:28;11.00;;;9.52;;
56960;SDS011;42857;49.768;22.716;2022-07-23T11:57:54;10.68;;;9.68;;
56960;SDS011;42857;49.768;22.716;2022-07-23T12:00:24;10.57;;;9.73;;
56960;SDS011;42857;49.768;22.716;2022-07-23T12:02:51;11.27;;;9.20;;
56960;SDS011;42857;49.768;22.716;2022-07-23T12:05:22;9.35;;;8.65;;
56960;SDS011;42857;49.768;22.716;2022-07-23T12:07:49;10.38;;;9.30;;
56960;SDS011;42857;49.768;22.716;2022-07-23T12:10:16;9.43;;;8.60;;
56960;SDS011;42857;49.768;22.716;2022-07-23T12:15:11;11.13;;;8.60;;
56960;SDS011;42857;49.768;22.716;2022-07-23T12:17:38;10.48;;;9.48;;
56960;SDS011;42857;49.768;22.716;2022-07-23T12:20:05;10.43;;;9.52;;
56960;SDS011;42857;49.768;22.716;2022-07-23T12:25:03;18.40;;;14.25;;
56960;SDS011;42857;49.768;22.716;2022-07-23T12:27:29;13.63;;;12.23;;
56960;SDS011;42857;49.768;22.716;2022-07-23T12:29:55;10.20;;;9.20;;
56960;SDS011;42857;49.768;22.716;2022-07-23T12:34:48;12.00;;;10.90;;
56960;SDS011;42857;49.768;22.716;2022-07-23T12:37:25;20.65;;;16.95;;
56960;SDS011;42857;49.768;22.716;2022-07-23T12:39:51;14.25;;;12.30;;
56960;SDS011;42857;49.768;22.716;2022-07-23T12:42:17;11.18;;;10.13;;
56960;SDS011;42857;49.768;22.716;2022-07-23T12:45:02;10.10;;;9.07;;
56960;SDS011;42857;49.768;22.716;2022-07-23T12:47:28;9.73;;;8.93;;
56960;SDS011;42857;49.768;22.716;2022-07-23T12:49:54;10.60;;;9.35;;
56960;SDS011;42857;49.768;22.716;2022-07-23T12:52:20;9.07;;;8.15;;
56960;SDS011;42857;49.768;22.716;2022-07-23T12:54:46;9.55;;;8.20;;
56960;SDS011;42857;49.768;22.716;2022-07-23T12:57:12;11.73;;;9.38;;
56960;SDS011;42857;49.768;22.716;2022-07-23T12:59:38;9.40;;;8.57;;
56960;SDS011;42857;49.768;22.716;2022-07-23T13:02:04;9.20;;;8.10;;
56960;SDS011;42857;49.768;22.716;2022-07-23T13:04:33;9.50;;;7.47;;
56960;SDS011;42857;49.768;22.716;2022-07-23T13:07:00;8.98;;;8.13;;
56960;SDS011;42857;49.768;22.716;2022-07-23T13:11:53;8.00;;;7.40;;
56960;SDS011;42857;49.768;22.716;2022-07-23T13:14:20;8.27;;;7.57;;
56960;SDS011;42857;49.768;22.716;2022-07-23T13:16:46;8.20;;;7.38;;
56960;SDS011;42857;49.768;22.716;2022-07-23T13:19:12;8.68;;;7.70;;
56960;SDS011;42857;49.768;22.716;2022-07-23T13:21:39;8.10;;;7.30;;
56960;SDS011;42857;49.768;22.716;2022-07-23T13:24:06;8.07;;;7.32;;
56960;SDS011;42857;49.768;22.716;2022-07-23T13:26:32;8.05;;;7.45;;
56960;SDS011;42857;49.768;22.716;2022-07-23T13:28:58;8.27;;;7.47;;
56960;SDS011;42857;49.768;22.716;2022-07-23T13:31:24;8.13;;;7.47;;
56960;SDS011;42857;49.768;22.716;2022-07-23T13:33:50;8.52;;;7.72;;
56960;SDS011;42857;49.768;22.716;2022-07-23T13:36:16;8.68;;;7.97;;
56960;SDS011;42857;49.768;22.716;2022-07-23T13:38:42;21.03;;;18.93;;
56960;SDS011;42857;49.768;22.716;2022-07-23T13:41:08;15.17;;;14.07;;
56960;SDS011;42857;49.768;22.716;2022-07-23T13:43:34;13.93;;;12.93;;
56960;SDS011;42857;49.768;22.716;2022-07-23T13:46:00;10.87;;;9.87;;
56960;SDS011;42857;49.768;22.716;2022-07-23T13:48:26;13.70;;;12.43;;
56960;SDS011;42857;49.768;22.716;2022-07-23T13:50:53;9.35;;;8.50;;
56960;SDS011;42857;49.768;22.716;2022-07-23T13:53:20;12.93;;;11.23;;
56960;SDS011;42857;49.768;22.716;2022-07-23T13:55:47;26.98;;;23.63;;
56960;SDS011;42857;49.768;22.716;2022-07-23T13:58:13;8.48;;;7.63;;
56960;SDS011;42857;49.768;22.716;2022-07-23T14:00:41;38.78;;;30.83;;
56960;SDS011;42857;49.768;22.716;2022-07-23T14:03:07;86.38;;;64.65;;
56960;SDS011;42857;49.768;22.716;2022-07-23T14:05:34;71.72;;;50.75;;
56960;SDS011;42857;49.768;22.716;2022-07-23T14:08:00;8.10;;;7.50;;
56960;SDS011;42857;49.768;22.716;2022-07-23T14:10:26;21.17;;;17.43;;
56960;SDS011;42857;49.768;22.716;2022-07-23T14:12:52;61.30;;;40.00;;
56960;SDS011;42857;49.768;22.716;2022-07-23T14:15:21;78.05;;;50.58;;
56960;SDS011;42857;49.768;22.716;2022-07-23T14:17:47;51.28;;;35.92;;
56960;SDS011;42857;49.768;22.716;2022-07-23T14:20:13;25.23;;;19.47;;
56960;SDS011;42857;49.768;22.716;2022-07-23T14:25:06;19.83;;;18.27;;
56960;SDS011;42857;49.768;22.716;2022-07-23T14:27:32;8.95;;;8.05;;
56960;SDS011;42857;49.768;22.716;2022-07-23T14:29:59;21.65;;;19.38;;
56960;SDS011;42857;49.768;22.716;2022-07-23T14:32:25;16.90;;;14.88;;
56960;SDS011;42857;49.768;22.716;2022-07-23T14:34:51;140.30;;;97.32;;
56960;SDS011;42857;49.768;22.716;2022-07-23T14:37:17;124.37;;;90.33;;
56960;SDS011;42857;49.768;22.716;2022-07-23T14:39:43;118.47;;;86.68;;
56960;SDS011;42857;49.768;22.716;2022-07-23T14:42:09;53.38;;;47.95;;
56960;SDS011;42857;49.768;22.716;2022-07-23T14:44:36;67.80;;;51.40;;
56960;SDS011;42857;49.768;22.716;2022-07-23T14:47:02;71.13;;;64.53;;
56960;SDS011;42857;49.768;22.716;2022-07-23T14:49:30;23.73;;;21.67;;
56960;SDS011;42857;49.768;22.716;2022-07-23T14:51:56;30.88;;;27.65;;
56960;SDS011;42857;49.768;22.716;2022-07-23T14:54:23;12.32;;;11.23;;
56960;SDS011;42857;49.768;22.716;2022-07-23T14:56:50;12.18;;;10.27;;
56960;SDS011;42857;49.768;22.716;2022-07-23T14:59:16;8.37;;;7.73;;
56960;SDS011;42857;49.768;22.716;2022-07-23T15:01:43;12.35;;;11.27;;
56960;SDS011;42857;49.768;22.716;2022-07-23T15:04:09;16.00;;;14.60;;
56960;SDS011;42857;49.768;22.716;2022-07-23T15:06:34;10.30;;;9.10;;
56960;SDS011;42857;49.768;22.716;2022-07-23T15:09:01;12.00;;;10.98;;